sensor_id;sensor_type;location;lat;lon;timestamp;P1;durP1;ratioP1;P2;durP2;ratioP2
27580;SDS011;63557;52.302;7.964;2023-12-20T00:04:03;14.95;;;4.45;;
27580;SDS011;63557;52.302;7.964;2023-12-20T00:09:03;22.15;;;4.78;;
27580;SDS011;63557;52.302;7.964;2023-12-20T00:14:03;23.05;;;5.40;;
27580;SDS011;63557;52.302;7.964;2023-12-20T00:19:04;21.47;;;5.10;;
27580;SDS011;63557;52.302;7.964;2023-12-20T00:24:04;19.40;;;4.33;;
27580;SDS011;63557;52.302;7.964;2023-12-20T00:29:05;16.00;;;4.13;;
27580;SDS011;63557;52.302;7.964;2023-12-20T00:34:05;18.80;;;4.27;;
27580;SDS011;63557;52.302;7.964;2023-12-20T00:39:05;12.55;;;4.95;;
27580;SDS011;63557;52.302;7.964;2023-12-20T00:44:07;24.83;;;4.95;;
27580;SDS011;63557;52.302;7.964;2023-12-20T00:49:07;14.85;;;5.38;;
27580;SDS011;63557;52.302;7.964;2023-12-20T00:54:07;16.60;;;5.18;;
27580;SDS011;63557;52.302;7.964;2023-12-20T00:59:09;18.95;;;4.90;;
27580;SDS011;63557;52.302;7.964;2023-12-20T01:04:09;21.20;;;5.82;;
27580;SDS011;63557;52.302;7.964;2023-12-20T01:09:10;22.63;;;6.00;;
27580;SDS011;63557;52.302;7.964;2023-12-20T01:14:10;21.23;;;6.50;;
27580;SDS011;63557;52.302;7.964;2023-12-20T01:19:11;28.20;;;7.05;;
27580;SDS011;63557;52.302;7.964;2023-12-20T01:24:11;21.23;;;6.30;;
27580;SDS011;63557;52.302;7.964;2023-12-20T01:29:12;17.13;;;6.73;;
27580;SDS011;63557;52.302;7.964;2023-12-20T01:34:14;19.77;;;5.95;;
27580;SDS011;63557;52.302;7.964;2023-12-20T01:39:14;19.03;;;6.27;;
27580;SDS011;63557;52.302;7.964;2023-12-20T01:44:14;27.57;;;7.70;;
27580;SDS011;63557;52.302;7.964;2023-12-20T01:49:15;22.97;;;8.30;;
27580;SDS011;63557;52.302;7.964;2023-12-20T01:54:16;27.60;;;7.75;;
27580;SDS011;63557;52.302;7.964;2023-12-20T01:59:17;27.58;;;8.00;;
27580;SDS011;63557;52.302;7.964;2023-12-20T02:04:18;22.70;;;8.02;;
27580;SDS011;63557;52.302;7.964;2023-12-20T02:09:19;22.40;;;7.90;;
27580;SDS011;63557;52.302;7.964;2023-12-20T02:14:19;23.85;;;7.80;;
27580;SDS011;63557;52.302;7.964;2023-12-20T02:19:20;22.48;;;7.10;;
27580;SDS011;63557;52.302;7.964;2023-12-20T02:24:20;25.10;;;7.00;;
27580;SDS011;63557;52.302;7.964;2023-12-20T02:29:21;20.37;;;6.03;;
27580;SDS011;63557;52.302;7.964;2023-12-20T02:34:21;20.77;;;6.17;;
27580;SDS011;63557;52.302;7.964;2023-12-20T02:39:22;25.30;;;7.45;;
27580;SDS011;63557;52.302;7.964;2023-12-20T02:44:22;26.30;;;7.22;;
27580;SDS011;63557;52.302;7.964;2023-12-20T02:49:22;25.37;;;7.27;;
27580;SDS011;63557;52.302;7.964;2023-12-20T02:54:23;29.47;;;8.47;;
27580;SDS011;63557;52.302;7.964;2023-12-20T02:59:23;20.10;;;8.73;;
27580;SDS011;63557;52.302;7.964;2023-12-20T03:04:24;35.83;;;8.93;;
27580;SDS011;63557;52.302;7.964;2023-12-20T03:09:24;33.73;;;9.83;;
27580;SDS011;63557;52.302;7.964;2023-12-20T03:14:24;28.58;;;8.50;;
27580;SDS011;63557;52.302;7.964;2023-12-20T03:19:25;24.10;;;8.33;;
27580;SDS011;63557;52.302;7.964;2023-12-20T03:24:25;29.67;;;8.65;;
27580;SDS011;63557;52.302;7.964;2023-12-20T03:29:25;38.47;;;9.45;;
27580;SDS011;63557;52.302;7.964;2023-12-20T03:34:26;30.65;;;9.85;;
27580;SDS011;63557;52.302;7.964;2023-12-20T03:39:26;31.65;;;8.45;;
27580;SDS011;63557;52.302;7.964;2023-12-20T03:44:27;24.60;;;8.23;;
27580;SDS011;63557;52.302;7.964;2023-12-20T03:49:27;30.40;;;7.53;;
27580;SDS011;63557;52.302;7.964;2023-12-20T03:54:28;33.00;;;6.97;;
27580;SDS011;63557;52.302;7.964;2023-12-20T03:59:28;26.10;;;5.43;;
27580;SDS011;63557;52.302;7.964;2023-12-20T04:04:28;27.43;;;6.93;;
27580;SDS011;63557;52.302;7.964;2023-12-20T04:09:29;27.00;;;6.07;;
27580;SDS011;63557;52.302;7.964;2023-12-20T04:14:29;35.40;;;6.60;;
27580;SDS011;63557;52.302;7.964;2023-12-20T04:19:29;22.42;;;6.43;;
27580;SDS011;63557;52.302;7.964;2023-12-20T04:24:30;27.20;;;6.23;;
27580;SDS011;63557;52.302;7.964;2023-12-20T04:29:30;25.45;;;5.90;;
27580;SDS011;63557;52.302;7.964;2023-12-20T04:34:31;35.20;;;7.53;;
27580;SDS011;63557;52.302;7.964;2023-12-20T04:39:31;29.08;;;5.57;;
27580;SDS011;63557;52.302;7.964;2023-12-20T04:44:31;27.83;;;5.80;;
27580;SDS011;63557;52.302;7.964;2023-12-20T04:49:32;28.70;;;6.32;;
27580;SDS011;63557;52.302;7.964;2023-12-20T04:54:32;30.43;;;6.23;;
27580;SDS011;63557;52.302;7.964;2023-12-20T04:59:33;31.00;;;5.50;;
27580;SDS011;63557;52.302;7.964;2023-12-20T05:04:33;30.03;;;5.53;;
27580;SDS011;63557;52.302;7.964;2023-12-20T05:09:33;35.10;;;7.20;;
27580;SDS011;63557;52.302;7.964;2023-12-20T05:14:34;34.00;;;6.83;;
27580;SDS011;63557;52.302;7.964;2023-12-20T05:19:34;24.85;;;5.57;;
27580;SDS011;63557;52.302;7.964;2023-12-20T05:24:35;29.30;;;5.32;;
27580;SDS011;63557;52.302;7.964;2023-12-20T05:29:35;31.20;;;7.07;;
27580;SDS011;63557;52.302;7.964;2023-12-20T05:34:36;44.10;;;8.00;;
27580;SDS011;63557;52.302;7.964;2023-12-20T05:39:36;26.58;;;6.10;;
27580;SDS011;63557;52.302;7.964;2023-12-20T05:44:37;39.05;;;7.35;;
27580;SDS011;63557;52.302;7.964;2023-12-20T05:49:37;28.27;;;6.85;;
27580;SDS011;63557;52.302;7.964;2023-12-20T05:54:37;32.87;;;6.63;;
27580;SDS011;63557;52.302;7.964;2023-12-20T05:59:38;29.30;;;7.30;;
27580;SDS011;63557;52.302;7.964;2023-12-20T06:04:41;33.70;;;7.93;;
27580;SDS011;63557;52.302;7.964;2023-12-20T06:09:41;29.55;;;7.63;;
27580;SDS011;63557;52.302;7.964;2023-12-20T06:14:42;30.00;;;7.30;;
27580;SDS011;63557;52.302;7.964;2023-12-20T06:19:42;26.67;;;6.77;;
27580;SDS011;63557;52.302;7.964;2023-12-20T06:24:45;29.33;;;7.18;;
27580;SDS011;63557;52.302;7.964;2023-12-20T06:29:45;27.75;;;6.80;;
27580;SDS011;63557;52.302;7.964;2023-12-20T06:34:46;19.48;;;5.55;;
27580;SDS011;63557;52.302;7.964;2023-12-20T06:39:46;23.90;;;6.88;;
27580;SDS011;63557;52.302;7.964;2023-12-20T06:44:46;35.15;;;7.68;;
27580;SDS011;63557;52.302;7.964;2023-12-20T06:49:47;30.47;;;7.80;;
27580;SDS011;63557;52.302;7.964;2023-12-20T06:54:48;26.20;;;7.38;;
27580;SDS011;63557;52.302;7.964;2023-12-20T06:59:48;26.90;;;7.20;;
27580;SDS011;63557;52.302;7.964;2023-12-20T07:04:49;28.88;;;7.55;;
27580;SDS011;63557;52.302;7.964;2023-12-20T07:09:49;32.83;;;7.27;;
27580;SDS011;63557;52.302;7.964;2023-12-20T07:14:50;35.67;;;6.53;;
27580;SDS011;63557;52.302;7.964;2023-12-20T07:19:50;33.63;;;6.80;;
27580;SDS011;63557;52.302;7.964;2023-12-20T07:24:50;33.20;;;6.53;;
27580;SDS011;63557;52.302;7.964;2023-12-20T07:29:52;28.95;;;5.43;;
27580;SDS011;63557;52.302;7.964;2023-12-20T07:34:52;25.90;;;5.07;;
27580;SDS011;63557;52.302;7.964;2023-12-20T07:39:53;28.80;;;5.45;;
27580;SDS011;63557;52.302;7.964;2023-12-20T07:44:54;28.45;;;6.10;;
27580;SDS011;63557;52.302;7.964;2023-12-20T07:49:55;30.52;;;6.55;;
27580;SDS011;63557;52.302;7.964;2023-12-20T07:54:56;21.27;;;4.65;;
27580;SDS011;63557;52.302;7.964;2023-12-20T07:59:56;21.00;;;4.38;;
27580;SDS011;63557;52.302;7.964;2023-12-20T08:04:56;26.87;;;5.53;;
27580;SDS011;63557;52.302;7.964;2023-12-20T08:09:57;26.50;;;6.23;;
27580;SDS011;63557;52.302;7.964;2023-12-20T08:14:57;15.30;;;4.75;;
27580;SDS011;63557;52.302;7.964;2023-12-20T08:19:58;24.15;;;5.43;;
27580;SDS011;63557;52.302;7.964;2023-12-20T08:24:59;18.50;;;4.80;;
27580;SDS011;63557;52.302;7.964;2023-12-20T08:29:59;24.55;;;5.00;;
27580;SDS011;63557;52.302;7.964;2023-12-20T08:35:00;20.03;;;4.23;;
27580;SDS011;63557;52.302;7.964;2023-12-20T08:40:00;25.05;;;5.10;;
27580;SDS011;63557;52.302;7.964;2023-12-20T08:45:01;23.02;;;5.70;;
27580;SDS011;63557;52.302;7.964;2023-12-20T08:50:02;25.63;;;4.97;;
27580;SDS011;63557;52.302;7.964;2023-12-20T08:55:03;18.20;;;4.28;;
27580;SDS011;63557;52.302;7.964;2023-12-20T09:00:03;25.20;;;5.70;;
27580;SDS011;63557;52.302;7.964;2023-12-20T09:05:04;26.73;;;5.90;;
27580;SDS011;63557;52.302;7.964;2023-12-20T09:10:05;27.67;;;5.22;;
27580;SDS011;63557;52.302;7.964;2023-12-20T09:15:05;27.45;;;6.43;;
27580;SDS011;63557;52.302;7.964;2023-12-20T09:20:06;31.65;;;6.35;;
27580;SDS011;63557;52.302;7.964;2023-12-20T09:25:08;27.73;;;6.43;;
27580;SDS011;63557;52.302;7.964;2023-12-20T09:30:09;31.63;;;5.95;;
27580;SDS011;63557;52.302;7.964;2023-12-20T09:35:10;29.40;;;6.53;;
27580;SDS011;63557;52.302;7.964;2023-12-20T09:40:10;25.83;;;7.07;;
27580;SDS011;63557;52.302;7.964;2023-12-20T09:45:13;31.15;;;7.28;;
27580;SDS011;63557;52.302;7.964;2023-12-20T09:50:15;27.00;;;5.80;;
27580;SDS011;63557;52.302;7.964;2023-12-20T09:55:19;24.13;;;7.25;;
27580;SDS011;63557;52.302;7.964;2023-12-20T10:00:20;25.88;;;6.82;;
27580;SDS011;63557;52.302;7.964;2023-12-20T10:05:20;24.27;;;7.40;;
27580;SDS011;63557;52.302;7.964;2023-12-20T10:15:26;21.45;;;6.22;;
27580;SDS011;63557;52.302;7.964;2023-12-20T10:20:26;25.50;;;6.17;;
27580;SDS011;63557;52.302;7.964;2023-12-20T10:25:29;27.90;;;6.60;;
27580;SDS011;63557;52.302;7.964;2023-12-20T10:30:31;25.63;;;5.53;;
27580;SDS011;63557;52.302;7.964;2023-12-20T10:35:32;22.70;;;5.47;;
27580;SDS011;63557;52.302;7.964;2023-12-20T10:40:34;26.33;;;5.53;;
27580;SDS011;63557;52.302;7.964;2023-12-20T10:45:34;17.00;;;4.63;;
27580;SDS011;63557;52.302;7.964;2023-12-20T10:50:35;14.73;;;4.57;;
27580;SDS011;63557;52.302;7.964;2023-12-20T10:55:36;16.58;;;4.45;;
27580;SDS011;63557;52.302;7.964;2023-12-20T11:00:40;18.77;;;4.28;;
27580;SDS011;63557;52.302;7.964;2023-12-20T11:05:52;24.17;;;5.60;;
27580;SDS011;63557;52.302;7.964;2023-12-20T11:11:00;25.67;;;4.90;;
27580;SDS011;63557;52.302;7.964;2023-12-20T11:16:03;23.88;;;5.03;;
27580;SDS011;63557;52.302;7.964;2023-12-20T11:21:06;22.85;;;5.45;;
27580;SDS011;63557;52.302;7.964;2023-12-20T11:26:07;25.55;;;5.72;;
27580;SDS011;63557;52.302;7.964;2023-12-20T11:31:07;15.40;;;5.10;;
27580;SDS011;63557;52.302;7.964;2023-12-20T11:36:14;21.60;;;5.60;;
27580;SDS011;63557;52.302;7.964;2023-12-20T11:41:15;20.43;;;6.37;;
27580;SDS011;63557;52.302;7.964;2023-12-20T11:46:15;17.70;;;4.75;;
27580;SDS011;63557;52.302;7.964;2023-12-20T11:51:16;26.33;;;6.77;;
27580;SDS011;63557;52.302;7.964;2023-12-20T11:56:16;19.58;;;5.13;;
27580;SDS011;63557;52.302;7.964;2023-12-20T12:01:19;11.52;;;2.78;;
27580;SDS011;63557;52.302;7.964;2023-12-20T12:06:19;53.78;;;34.85;;
27580;SDS011;63557;52.302;7.964;2023-12-20T12:11:21;10.65;;;2.47;;
27580;SDS011;63557;52.302;7.964;2023-12-20T12:16:21;10.35;;;2.30;;
27580;SDS011;63557;52.302;7.964;2023-12-20T12:21:21;5.93;;;2.22;;
27580;SDS011;63557;52.302;7.964;2023-12-20T12:26:24;9.00;;;2.42;;
27580;SDS011;63557;52.302;7.964;2023-12-20T12:31:25;8.55;;;2.30;;
27580;SDS011;63557;52.302;7.964;2023-12-20T12:36:27;12.57;;;2.42;;
27580;SDS011;63557;52.302;7.964;2023-12-20T12:41:28;9.00;;;2.30;;
27580;SDS011;63557;52.302;7.964;2023-12-20T12:46:29;22.13;;;7.78;;
27580;SDS011;63557;52.302;7.964;2023-12-20T12:51:29;13.68;;;2.45;;
27580;SDS011;63557;52.302;7.964;2023-12-20T12:56:30;7.73;;;4.47;;
27580;SDS011;63557;52.302;7.964;2023-12-20T13:01:30;9.85;;;2.40;;
27580;SDS011;63557;52.302;7.964;2023-12-20T13:06:31;17.08;;;5.88;;
27580;SDS011;63557;52.302;7.964;2023-12-20T13:11:31;15.98;;;7.97;;
27580;SDS011;63557;52.302;7.964;2023-12-20T13:16:32;11.45;;;2.72;;
27580;SDS011;63557;52.302;7.964;2023-12-20T13:21:34;10.57;;;2.53;;
27580;SDS011;63557;52.302;7.964;2023-12-20T13:26:34;16.03;;;3.03;;
27580;SDS011;63557;52.302;7.964;2023-12-20T13:31:35;14.57;;;2.55;;
27580;SDS011;63557;52.302;7.964;2023-12-20T13:36:36;14.35;;;2.67;;
27580;SDS011;63557;52.302;7.964;2023-12-20T13:41:37;12.00;;;2.93;;
27580;SDS011;63557;52.302;7.964;2023-12-20T13:46:37;13.80;;;3.10;;
27580;SDS011;63557;52.302;7.964;2023-12-20T13:51:38;10.15;;;2.25;;
27580;SDS011;63557;52.302;7.964;2023-12-20T13:56:38;10.85;;;2.53;;
27580;SDS011;63557;52.302;7.964;2023-12-20T14:01:39;9.10;;;2.38;;
27580;SDS011;63557;52.302;7.964;2023-12-20T14:06:39;11.35;;;2.63;;
27580;SDS011;63557;52.302;7.964;2023-12-20T14:11:40;15.07;;;2.60;;
27580;SDS011;63557;52.302;7.964;2023-12-20T14:16:41;12.88;;;2.78;;
27580;SDS011;63557;52.302;7.964;2023-12-20T14:21:45;13.65;;;2.55;;
27580;SDS011;63557;52.302;7.964;2023-12-20T14:26:45;14.63;;;2.58;;
27580;SDS011;63557;52.302;7.964;2023-12-20T14:31:46;11.18;;;2.40;;
27580;SDS011;63557;52.302;7.964;2023-12-20T14:36:46;10.70;;;2.40;;
27580;SDS011;63557;52.302;7.964;2023-12-20T14:41:47;11.95;;;2.88;;
27580;SDS011;63557;52.302;7.964;2023-12-20T14:46:47;6.93;;;2.47;;
27580;SDS011;63557;52.302;7.964;2023-12-20T14:51:47;10.33;;;2.83;;
27580;SDS011;63557;52.302;7.964;2023-12-20T14:56:48;10.23;;;2.40;;
27580;SDS011;63557;52.302;7.964;2023-12-20T15:01:48;11.65;;;2.63;;
27580;SDS011;63557;52.302;7.964;2023-12-20T15:06:49;15.80;;;3.60;;
27580;SDS011;63557;52.302;7.964;2023-12-20T15:11:50;13.75;;;2.85;;
27580;SDS011;63557;52.302;7.964;2023-12-20T15:16:50;15.57;;;3.55;;
27580;SDS011;63557;52.302;7.964;2023-12-20T15:21:51;11.40;;;3.95;;
27580;SDS011;63557;52.302;7.964;2023-12-20T15:26:51;15.52;;;4.35;;
27580;SDS011;63557;52.302;7.964;2023-12-20T15:31:51;13.67;;;4.03;;
27580;SDS011;63557;52.302;7.964;2023-12-20T15:36:52;18.63;;;5.22;;
27580;SDS011;63557;52.302;7.964;2023-12-20T15:41:52;17.45;;;4.90;;
27580;SDS011;63557;52.302;7.964;2023-12-20T15:46:53;19.63;;;5.25;;
27580;SDS011;63557;52.302;7.964;2023-12-20T15:51:53;14.40;;;6.55;;
27580;SDS011;63557;52.302;7.964;2023-12-20T15:56:54;19.58;;;8.43;;
27580;SDS011;63557;52.302;7.964;2023-12-20T16:01:54;15.17;;;4.43;;
27580;SDS011;63557;52.302;7.964;2023-12-20T16:06:55;11.63;;;5.67;;
27580;SDS011;63557;52.302;7.964;2023-12-20T16:11:55;16.47;;;4.53;;
27580;SDS011;63557;52.302;7.964;2023-12-20T16:16:55;18.57;;;6.03;;
27580;SDS011;63557;52.302;7.964;2023-12-20T16:21:56;17.20;;;5.53;;
27580;SDS011;63557;52.302;7.964;2023-12-20T16:26:56;23.60;;;5.97;;
27580;SDS011;63557;52.302;7.964;2023-12-20T16:31:56;27.40;;;9.83;;
27580;SDS011;63557;52.302;7.964;2023-12-20T16:36:57;23.42;;;6.15;;
27580;SDS011;63557;52.302;7.964;2023-12-20T16:41:58;24.42;;;6.45;;
27580;SDS011;63557;52.302;7.964;2023-12-20T16:46:59;27.20;;;6.80;;
27580;SDS011;63557;52.302;7.964;2023-12-20T16:51:59;21.63;;;5.18;;
27580;SDS011;63557;52.302;7.964;2023-12-20T16:56:59;19.57;;;6.87;;
27580;SDS011;63557;52.302;7.964;2023-12-20T17:02:00;22.80;;;5.82;;
27580;SDS011;63557;52.302;7.964;2023-12-20T17:07:04;28.90;;;6.45;;
27580;SDS011;63557;52.302;7.964;2023-12-20T17:12:05;22.52;;;7.15;;
27580;SDS011;63557;52.302;7.964;2023-12-20T17:17:05;26.83;;;7.18;;
27580;SDS011;63557;52.302;7.964;2023-12-20T17:22:06;29.40;;;8.18;;
27580;SDS011;63557;52.302;7.964;2023-12-20T17:27:06;32.57;;;7.87;;
27580;SDS011;63557;52.302;7.964;2023-12-20T17:32:08;22.27;;;8.02;;
27580;SDS011;63557;52.302;7.964;2023-12-20T17:37:08;33.78;;;9.07;;
27580;SDS011;63557;52.302;7.964;2023-12-20T17:42:09;23.37;;;9.03;;
27580;SDS011;63557;52.302;7.964;2023-12-20T17:47:09;28.80;;;9.23;;
27580;SDS011;63557;52.302;7.964;2023-12-20T17:52:10;32.47;;;10.27;;
27580;SDS011;63557;52.302;7.964;2023-12-20T17:57:10;34.03;;;10.38;;
27580;SDS011;63557;52.302;7.964;2023-12-20T18:02:10;32.85;;;10.20;;
27580;SDS011;63557;52.302;7.964;2023-12-20T18:07:11;29.80;;;11.80;;
27580;SDS011;63557;52.302;7.964;2023-12-20T18:12:12;40.05;;;13.70;;
27580;SDS011;63557;52.302;7.964;2023-12-20T18:17:12;34.30;;;14.50;;
27580;SDS011;63557;52.302;7.964;2023-12-20T18:22:12;36.53;;;13.83;;
27580;SDS011;63557;52.302;7.964;2023-12-20T18:27:13;36.57;;;16.00;;
27580;SDS011;63557;52.302;7.964;2023-12-20T18:32:13;48.63;;;17.23;;
27580;SDS011;63557;52.302;7.964;2023-12-20T18:37:13;39.33;;;16.50;;
27580;SDS011;63557;52.302;7.964;2023-12-20T18:42:14;32.35;;;15.13;;
27580;SDS011;63557;52.302;7.964;2023-12-20T18:47:14;44.50;;;17.50;;
27580;SDS011;63557;52.302;7.964;2023-12-20T18:52:15;34.83;;;17.35;;
27580;SDS011;63557;52.302;7.964;2023-12-20T18:57:16;42.42;;;17.73;;
27580;SDS011;63557;52.302;7.964;2023-12-20T19:02:16;35.53;;;17.63;;
27580;SDS011;63557;52.302;7.964;2023-12-20T19:07:18;39.70;;;17.13;;
27580;SDS011;63557;52.302;7.964;2023-12-20T19:12:18;37.67;;;19.60;;
27580;SDS011;63557;52.302;7.964;2023-12-20T19:17:18;39.83;;;18.07;;
27580;SDS011;63557;52.302;7.964;2023-12-20T19:22:19;42.00;;;18.03;;
27580;SDS011;63557;52.302;7.964;2023-12-20T19:27:19;38.08;;;18.33;;
27580;SDS011;63557;52.302;7.964;2023-12-20T19:32:19;33.90;;;18.17;;
27580;SDS011;63557;52.302;7.964;2023-12-20T19:37:20;35.47;;;18.03;;
27580;SDS011;63557;52.302;7.964;2023-12-20T19:42:20;35.78;;;17.75;;
27580;SDS011;63557;52.302;7.964;2023-12-20T19:47:21;29.95;;;16.38;;
27580;SDS011;63557;52.302;7.964;2023-12-20T19:52:21;31.87;;;15.83;;
27580;SDS011;63557;52.302;7.964;2023-12-20T19:57:22;26.48;;;14.90;;
27580;SDS011;63557;52.302;7.964;2023-12-20T20:02:22;31.90;;;15.50;;
27580;SDS011;63557;52.302;7.964;2023-12-20T20:07:22;33.08;;;15.70;;
27580;SDS011;63557;52.302;7.964;2023-12-20T20:12:25;27.75;;;13.55;;
27580;SDS011;63557;52.302;7.964;2023-12-20T20:17:25;23.93;;;13.63;;
27580;SDS011;63557;52.302;7.964;2023-12-20T20:22:26;22.10;;;13.57;;
27580;SDS011;63557;52.302;7.964;2023-12-20T20:27:26;21.33;;;13.85;;
27580;SDS011;63557;52.302;7.964;2023-12-20T20:32:27;18.93;;;11.23;;
27580;SDS011;63557;52.302;7.964;2023-12-20T20:37:27;20.70;;;12.00;;
27580;SDS011;63557;52.302;7.964;2023-12-20T20:42:28;19.42;;;12.02;;
27580;SDS011;63557;52.302;7.964;2023-12-20T20:47:28;18.23;;;11.45;;
27580;SDS011;63557;52.302;7.964;2023-12-20T20:52:29;21.23;;;11.47;;
27580;SDS011;63557;52.302;7.964;2023-12-20T20:57:29;16.48;;;10.38;;
27580;SDS011;63557;52.302;7.964;2023-12-20T21:02:30;17.47;;;9.30;;
27580;SDS011;63557;52.302;7.964;2023-12-20T21:07:31;15.13;;;9.70;;
27580;SDS011;63557;52.302;7.964;2023-12-20T21:12:32;12.80;;;8.15;;
27580;SDS011;63557;52.302;7.964;2023-12-20T21:17:32;14.57;;;9.23;;
27580;SDS011;63557;52.302;7.964;2023-12-20T21:22:32;12.80;;;8.48;;
27580;SDS011;63557;52.302;7.964;2023-12-20T21:27:33;11.80;;;8.70;;
27580;SDS011;63557;52.302;7.964;2023-12-20T21:32:34;11.20;;;8.32;;
27580;SDS011;63557;52.302;7.964;2023-12-20T21:37:36;11.68;;;8.73;;
27580;SDS011;63557;52.302;7.964;2023-12-20T21:42:37;12.32;;;7.35;;
27580;SDS011;63557;52.302;7.964;2023-12-20T21:47:37;9.25;;;7.40;;
27580;SDS011;63557;52.302;7.964;2023-12-20T21:52:38;15.23;;;9.27;;
27580;SDS011;63557;52.302;7.964;2023-12-20T21:57:38;12.53;;;9.33;;
27580;SDS011;63557;52.302;7.964;2023-12-20T22:02:39;13.32;;;8.38;;
27580;SDS011;63557;52.302;7.964;2023-12-20T22:07:39;10.68;;;7.40;;
27580;SDS011;63557;52.302;7.964;2023-12-20T22:12:39;13.07;;;8.27;;
27580;SDS011;63557;52.302;7.964;2023-12-20T22:17:40;13.10;;;7.90;;
27580;SDS011;63557;52.302;7.964;2023-12-20T22:22:41;6.90;;;5.82;;
27580;SDS011;63557;52.302;7.964;2023-12-20T22:27:41;12.40;;;6.90;;
27580;SDS011;63557;52.302;7.964;2023-12-20T22:32:42;9.00;;;6.47;;
27580;SDS011;63557;52.302;7.964;2023-12-20T22:37:42;10.95;;;5.93;;
27580;SDS011;63557;52.302;7.964;2023-12-20T22:42:44;8.50;;;5.57;;
27580;SDS011;63557;52.302;7.964;2023-12-20T22:47:44;10.80;;;5.30;;
27580;SDS011;63557;52.302;7.964;2023-12-20T22:52:46;7.70;;;5.18;;
27580;SDS011;63557;52.302;7.964;2023-12-20T22:57:46;5.88;;;5.13;;
27580;SDS011;63557;52.302;7.964;2023-12-20T23:02:46;6.72;;;5.60;;
27580;SDS011;63557;52.302;7.964;2023-12-20T23:07:47;6.65;;;5.35;;
27580;SDS011;63557;52.302;7.964;2023-12-20T23:12:47;6.93;;;4.40;;
27580;SDS011;63557;52.302;7.964;2023-12-20T23:17:48;5.15;;;4.22;;
27580;SDS011;63557;52.302;7.964;2023-12-20T23:22:49;6.32;;;4.47;;
27580;SDS011;63557;52.302;7.964;2023-12-20T23:27:49;5.75;;;4.50;;
27580;SDS011;63557;52.302;7.964;2023-12-20T23:32:52;7.60;;;4.85;;
27580;SDS011;63557;52.302;7.964;2023-12-20T23:37:53;6.35;;;4.35;;
27580;SDS011;63557;52.302;7.964;2023-12-20T23:42:53;6.20;;;4.13;;
27580;SDS011;63557;52.302;7.964;2023-12-20T23:47:54;6.07;;;4.32;;
27580;SDS011;63557;52.302;7.964;2023-12-20T23:52:54;8.20;;;4.53;;
27580;SDS011;63557;52.302;7.964;2023-12-20T23:57:54;7.83;;;4.67;;
